sensor_id;sensor_type;location;lat;lon;timestamp;P1;durP1;ratioP1;P2;durP2;ratioP2
67715;SDS011;54508;43.238;25.306;2023-02-26T00:00:07;17.08;;;9.20;;
67715;SDS011;54508;43.238;25.306;2023-02-26T00:02:39;16.83;;;9.05;;
67715;SDS011;54508;43.238;25.306;2023-02-26T00:05:06;15.85;;;9.68;;
67715;SDS011;54508;43.238;25.306;2023-02-26T00:07:31;14.57;;;8.55;;
67715;SDS011;54508;43.238;25.306;2023-02-26T00:09:57;20.97;;;9.53;;
67715;SDS011;54508;43.238;25.306;2023-02-26T00:12:22;16.48;;;9.43;;
67715;SDS011;54508;43.238;25.306;2023-02-26T00:14:48;19.23;;;9.13;;
67715;SDS011;54508;43.238;25.306;2023-02-26T00:19:51;13.90;;;8.68;;
67715;SDS011;54508;43.238;25.306;2023-02-26T00:22:17;13.97;;;8.00;;
67715;SDS011;54508;43.238;25.306;2023-02-26T00:24:43;16.98;;;8.75;;
67715;SDS011;54508;43.238;25.306;2023-02-26T00:27:09;14.73;;;8.60;;
67715;SDS011;54508;43.238;25.306;2023-02-26T00:29:35;18.45;;;9.15;;
67715;SDS011;54508;43.238;25.306;2023-02-26T00:32:02;17.67;;;8.55;;
67715;SDS011;54508;43.238;25.306;2023-02-26T00:34:27;14.77;;;8.82;;
67715;SDS011;54508;43.238;25.306;2023-02-26T00:42:19;18.10;;;9.20;;
67715;SDS011;54508;43.238;25.306;2023-02-26T00:44:44;15.70;;;9.15;;
67715;SDS011;54508;43.238;25.306;2023-02-26T00:55:07;19.05;;;8.57;;
67715;SDS011;54508;43.238;25.306;2023-02-26T00:57:33;15.60;;;8.67;;
67715;SDS011;54508;43.238;25.306;2023-02-26T00:59:58;14.93;;;9.17;;
67715;SDS011;54508;43.238;25.306;2023-02-26T01:02:24;15.25;;;8.73;;
67715;SDS011;54508;43.238;25.306;2023-02-26T01:04:49;21.17;;;8.70;;
67715;SDS011;54508;43.238;25.306;2023-02-26T01:07:16;14.48;;;8.00;;
67715;SDS011;54508;43.238;25.306;2023-02-26T01:09:43;18.43;;;8.90;;
67715;SDS011;54508;43.238;25.306;2023-02-26T01:12:10;15.77;;;8.80;;
67715;SDS011;54508;43.238;25.306;2023-02-26T01:14:41;16.98;;;9.18;;
67715;SDS011;54508;43.238;25.306;2023-02-26T01:17:22;14.52;;;8.05;;
67715;SDS011;54508;43.238;25.306;2023-02-26T01:19:51;18.10;;;8.02;;
67715;SDS011;54508;43.238;25.306;2023-02-26T01:22:24;15.90;;;7.63;;
67715;SDS011;54508;43.238;25.306;2023-02-26T01:25:04;16.80;;;8.32;;
67715;SDS011;54508;43.238;25.306;2023-02-26T01:27:33;14.55;;;7.78;;
67715;SDS011;54508;43.238;25.306;2023-02-26T01:29:59;13.25;;;7.90;;
67715;SDS011;54508;43.238;25.306;2023-02-26T01:43:31;12.18;;;7.63;;
67715;SDS011;54508;43.238;25.306;2023-02-26T01:48:36;13.35;;;7.85;;
67715;SDS011;54508;43.238;25.306;2023-02-26T01:51:07;13.30;;;7.85;;
67715;SDS011;54508;43.238;25.306;2023-02-26T01:53:33;15.00;;;7.37;;
67715;SDS011;54508;43.238;25.306;2023-02-26T01:56:00;13.07;;;6.95;;
67715;SDS011;54508;43.238;25.306;2023-02-26T01:58:29;15.20;;;8.13;;
67715;SDS011;54508;43.238;25.306;2023-02-26T02:00:57;13.30;;;7.90;;
67715;SDS011;54508;43.238;25.306;2023-02-26T02:03:22;15.95;;;8.13;;
67715;SDS011;54508;43.238;25.306;2023-02-26T02:05:51;15.53;;;7.93;;
67715;SDS011;54508;43.238;25.306;2023-02-26T02:08:20;11.10;;;7.47;;
67715;SDS011;54508;43.238;25.306;2023-02-26T02:10:46;15.50;;;7.30;;
67715;SDS011;54508;43.238;25.306;2023-02-26T02:16:01;20.10;;;8.00;;
67715;SDS011;54508;43.238;25.306;2023-02-26T02:24:10;16.20;;;7.78;;
67715;SDS011;54508;43.238;25.306;2023-02-26T02:29:16;18.57;;;7.80;;
67715;SDS011;54508;43.238;25.306;2023-02-26T02:37:31;15.20;;;7.10;;
67715;SDS011;54508;43.238;25.306;2023-02-26T02:42:47;16.98;;;7.70;;
67715;SDS011;54508;43.238;25.306;2023-02-26T02:47:45;15.57;;;7.25;;
67715;SDS011;54508;43.238;25.306;2023-02-26T02:50:18;15.60;;;7.83;;
67715;SDS011;54508;43.238;25.306;2023-02-26T02:52:56;11.38;;;7.32;;
67715;SDS011;54508;43.238;25.306;2023-02-26T02:55:24;12.07;;;7.75;;
67715;SDS011;54508;43.238;25.306;2023-02-26T02:57:54;14.07;;;8.52;;
67715;SDS011;54508;43.238;25.306;2023-02-26T03:00:29;16.88;;;7.13;;
67715;SDS011;54508;43.238;25.306;2023-02-26T03:03:18;10.83;;;7.33;;
67715;SDS011;54508;43.238;25.306;2023-02-26T03:05:41;11.88;;;7.35;;
67715;SDS011;54508;43.238;25.306;2023-02-26T03:08:08;12.55;;;7.30;;
67715;SDS011;54508;43.238;25.306;2023-02-26T03:10:35;16.83;;;7.30;;
67715;SDS011;54508;43.238;25.306;2023-02-26T03:13:01;13.20;;;7.68;;
67715;SDS011;54508;43.238;25.306;2023-02-26T03:18:05;15.38;;;7.88;;
67715;SDS011;54508;43.238;25.306;2023-02-26T03:23:42;14.15;;;6.80;;
67715;SDS011;54508;43.238;25.306;2023-02-26T03:26:14;13.87;;;7.70;;
67715;SDS011;54508;43.238;25.306;2023-02-26T03:31:56;9.65;;;6.90;;
67715;SDS011;54508;43.238;25.306;2023-02-26T03:37:22;10.68;;;7.35;;
67715;SDS011;54508;43.238;25.306;2023-02-26T03:39:52;15.73;;;7.23;;
67715;SDS011;54508;43.238;25.306;2023-02-26T03:45:08;11.38;;;7.05;;
67715;SDS011;54508;43.238;25.306;2023-02-26T03:47:36;12.65;;;6.45;;
67715;SDS011;54508;43.238;25.306;2023-02-26T03:50:03;15.13;;;7.47;;
67715;SDS011;54508;43.238;25.306;2023-02-26T03:52:45;12.85;;;6.68;;
67715;SDS011;54508;43.238;25.306;2023-02-26T03:55:16;14.63;;;7.13;;
67715;SDS011;54508;43.238;25.306;2023-02-26T03:58:02;13.75;;;6.80;;
67715;SDS011;54508;43.238;25.306;2023-02-26T04:00:28;12.00;;;6.77;;
67715;SDS011;54508;43.238;25.306;2023-02-26T04:03:17;12.85;;;7.15;;
67715;SDS011;54508;43.238;25.306;2023-02-26T04:05:47;13.82;;;7.60;;
67715;SDS011;54508;43.238;25.306;2023-02-26T04:08:13;13.82;;;7.43;;
67715;SDS011;54508;43.238;25.306;2023-02-26T04:10:40;12.07;;;6.60;;
67715;SDS011;54508;43.238;25.306;2023-02-26T04:13:09;13.15;;;7.38;;
67715;SDS011;54508;43.238;25.306;2023-02-26T04:15:35;12.77;;;6.90;;
67715;SDS011;54508;43.238;25.306;2023-02-26T04:18:00;16.20;;;6.57;;
67715;SDS011;54508;43.238;25.306;2023-02-26T04:20:26;15.30;;;7.43;;
67715;SDS011;54508;43.238;25.306;2023-02-26T04:22:53;9.75;;;6.40;;
67715;SDS011;54508;43.238;25.306;2023-02-26T04:25:18;12.55;;;7.03;;
67715;SDS011;54508;43.238;25.306;2023-02-26T04:27:44;15.03;;;7.83;;
67715;SDS011;54508;43.238;25.306;2023-02-26T04:30:26;15.73;;;6.88;;
67715;SDS011;54508;43.238;25.306;2023-02-26T04:32:51;13.73;;;7.40;;
67715;SDS011;54508;43.238;25.306;2023-02-26T04:35:17;13.37;;;7.00;;
67715;SDS011;54508;43.238;25.306;2023-02-26T04:37:45;12.43;;;6.75;;
67715;SDS011;54508;43.238;25.306;2023-02-26T04:40:13;12.57;;;7.00;;
67715;SDS011;54508;43.238;25.306;2023-02-26T04:42:41;10.93;;;6.63;;
67715;SDS011;54508;43.238;25.306;2023-02-26T04:45:07;15.17;;;6.57;;
67715;SDS011;54508;43.238;25.306;2023-02-26T04:47:32;10.18;;;6.88;;
67715;SDS011;54508;43.238;25.306;2023-02-26T04:49:58;13.80;;;6.87;;
67715;SDS011;54508;43.238;25.306;2023-02-26T04:52:24;10.17;;;5.97;;
67715;SDS011;54508;43.238;25.306;2023-02-26T04:54:49;15.23;;;6.70;;
67715;SDS011;54508;43.238;25.306;2023-02-26T04:57:15;11.57;;;6.50;;
67715;SDS011;54508;43.238;25.306;2023-02-26T04:59:40;11.67;;;6.20;;
67715;SDS011;54508;43.238;25.306;2023-02-26T05:02:06;10.63;;;6.82;;
67715;SDS011;54508;43.238;25.306;2023-02-26T05:04:31;13.50;;;5.83;;
67715;SDS011;54508;43.238;25.306;2023-02-26T05:07:00;12.02;;;5.65;;
67715;SDS011;54508;43.238;25.306;2023-02-26T05:09:25;11.47;;;6.67;;
67715;SDS011;54508;43.238;25.306;2023-02-26T05:11:51;16.65;;;6.53;;
67715;SDS011;54508;43.238;25.306;2023-02-26T05:14:16;10.60;;;6.30;;
67715;SDS011;54508;43.238;25.306;2023-02-26T05:16:42;12.63;;;7.43;;
67715;SDS011;54508;43.238;25.306;2023-02-26T05:19:07;10.82;;;6.38;;
67715;SDS011;54508;43.238;25.306;2023-02-26T05:21:33;11.93;;;5.93;;
67715;SDS011;54508;43.238;25.306;2023-02-26T05:23:58;9.27;;;6.03;;
67715;SDS011;54508;43.238;25.306;2023-02-26T05:26:24;12.07;;;5.87;;
67715;SDS011;54508;43.238;25.306;2023-02-26T05:28:49;11.80;;;5.80;;
67715;SDS011;54508;43.238;25.306;2023-02-26T05:31:15;12.63;;;6.70;;
67715;SDS011;54508;43.238;25.306;2023-02-26T05:33:40;9.73;;;6.27;;
67715;SDS011;54508;43.238;25.306;2023-02-26T05:36:07;9.55;;;5.97;;
67715;SDS011;54508;43.238;25.306;2023-02-26T05:38:35;9.68;;;5.75;;
67715;SDS011;54508;43.238;25.306;2023-02-26T05:41:03;11.70;;;6.07;;
67715;SDS011;54508;43.238;25.306;2023-02-26T05:43:29;10.53;;;5.43;;
67715;SDS011;54508;43.238;25.306;2023-02-26T05:45:54;15.23;;;5.95;;
67715;SDS011;54508;43.238;25.306;2023-02-26T05:48:20;10.47;;;6.20;;
67715;SDS011;54508;43.238;25.306;2023-02-26T05:50:47;11.02;;;6.00;;
67715;SDS011;54508;43.238;25.306;2023-02-26T05:53:13;9.03;;;5.53;;
67715;SDS011;54508;43.238;25.306;2023-02-26T05:55:38;12.15;;;5.50;;
67715;SDS011;54508;43.238;25.306;2023-02-26T05:58:16;9.67;;;5.43;;
67715;SDS011;54508;43.238;25.306;2023-02-26T06:00:42;9.63;;;5.65;;
67715;SDS011;54508;43.238;25.306;2023-02-26T06:03:07;12.20;;;6.00;;
67715;SDS011;54508;43.238;25.306;2023-02-26T06:05:33;12.03;;;5.70;;
67715;SDS011;54508;43.238;25.306;2023-02-26T06:08:00;13.90;;;5.97;;
67715;SDS011;54508;43.238;25.306;2023-02-26T06:10:26;9.75;;;5.30;;
67715;SDS011;54508;43.238;25.306;2023-02-26T06:12:51;8.40;;;5.10;;
67715;SDS011;54508;43.238;25.306;2023-02-26T06:15:16;7.87;;;4.77;;
67715;SDS011;54508;43.238;25.306;2023-02-26T06:17:42;11.47;;;5.60;;
67715;SDS011;54508;43.238;25.306;2023-02-26T06:20:08;11.65;;;6.20;;
67715;SDS011;54508;43.238;25.306;2023-02-26T06:22:34;10.03;;;5.00;;
67715;SDS011;54508;43.238;25.306;2023-02-26T06:25:04;11.05;;;5.85;;
67715;SDS011;54508;43.238;25.306;2023-02-26T06:27:30;12.13;;;5.30;;
67715;SDS011;54508;43.238;25.306;2023-02-26T06:29:56;8.20;;;5.40;;
67715;SDS011;54508;43.238;25.306;2023-02-26T06:32:21;14.27;;;5.82;;
67715;SDS011;54508;43.238;25.306;2023-02-26T06:34:56;11.13;;;5.60;;
67715;SDS011;54508;43.238;25.306;2023-02-26T06:37:26;8.05;;;5.20;;
67715;SDS011;54508;43.238;25.306;2023-02-26T06:39:54;10.33;;;5.37;;
67715;SDS011;54508;43.238;25.306;2023-02-26T06:42:51;12.68;;;5.35;;
67715;SDS011;54508;43.238;25.306;2023-02-26T06:45:17;13.87;;;6.07;;
67715;SDS011;54508;43.238;25.306;2023-02-26T06:47:42;13.47;;;5.00;;
67715;SDS011;54508;43.238;25.306;2023-02-26T06:50:08;8.43;;;4.80;;
67715;SDS011;54508;43.238;25.306;2023-02-26T06:52:34;11.40;;;5.30;;
67715;SDS011;54508;43.238;25.306;2023-02-26T06:55:00;9.68;;;4.88;;
67715;SDS011;54508;43.238;25.306;2023-02-26T06:57:26;11.15;;;5.22;;
67715;SDS011;54508;43.238;25.306;2023-02-26T06:59:52;7.20;;;4.73;;
67715;SDS011;54508;43.238;25.306;2023-02-26T07:02:18;9.53;;;4.90;;
67715;SDS011;54508;43.238;25.306;2023-02-26T07:04:44;9.75;;;5.20;;
67715;SDS011;54508;43.238;25.306;2023-02-26T07:07:10;10.20;;;5.07;;
67715;SDS011;54508;43.238;25.306;2023-02-26T07:09:36;10.30;;;5.05;;
67715;SDS011;54508;43.238;25.306;2023-02-26T07:12:01;11.30;;;4.70;;
67715;SDS011;54508;43.238;25.306;2023-02-26T07:14:27;8.48;;;5.53;;
67715;SDS011;54508;43.238;25.306;2023-02-26T07:16:53;10.27;;;4.90;;
67715;SDS011;54508;43.238;25.306;2023-02-26T07:19:18;10.65;;;5.20;;
67715;SDS011;54508;43.238;25.306;2023-02-26T07:21:44;10.55;;;4.70;;
67715;SDS011;54508;43.238;25.306;2023-02-26T07:24:14;9.27;;;5.00;;
67715;SDS011;54508;43.238;25.306;2023-02-26T07:27:09;9.90;;;4.78;;
67715;SDS011;54508;43.238;25.306;2023-02-26T07:29:34;8.37;;;4.80;;
67715;SDS011;54508;43.238;25.306;2023-02-26T07:32:00;11.88;;;4.55;;
67715;SDS011;54508;43.238;25.306;2023-02-26T07:34:26;13.50;;;5.80;;
67715;SDS011;54508;43.238;25.306;2023-02-26T07:36:52;9.03;;;4.67;;
67715;SDS011;54508;43.238;25.306;2023-02-26T07:39:17;7.83;;;4.60;;
67715;SDS011;54508;43.238;25.306;2023-02-26T07:41:43;10.13;;;4.97;;
67715;SDS011;54508;43.238;25.306;2023-02-26T07:44:08;11.43;;;5.40;;
67715;SDS011;54508;43.238;25.306;2023-02-26T07:46:34;9.43;;;4.70;;
67715;SDS011;54508;43.238;25.306;2023-02-26T07:48:59;12.93;;;5.05;;
67715;SDS011;54508;43.238;25.306;2023-02-26T07:51:25;9.67;;;4.83;;
67715;SDS011;54508;43.238;25.306;2023-02-26T07:53:50;9.87;;;4.60;;
67715;SDS011;54508;43.238;25.306;2023-02-26T07:56:16;13.17;;;5.40;;
67715;SDS011;54508;43.238;25.306;2023-02-26T07:58:41;11.25;;;4.65;;
67715;SDS011;54508;43.238;25.306;2023-02-26T08:01:07;9.20;;;4.77;;
67715;SDS011;54508;43.238;25.306;2023-02-26T08:03:32;7.90;;;4.40;;
67715;SDS011;54508;43.238;25.306;2023-02-26T08:06:08;18.13;;;4.50;;
67715;SDS011;54508;43.238;25.306;2023-02-26T08:08:39;14.20;;;4.55;;
67715;SDS011;54508;43.238;25.306;2023-02-26T08:11:05;18.27;;;5.07;;
67715;SDS011;54508;43.238;25.306;2023-02-26T08:13:48;15.75;;;5.28;;
67715;SDS011;54508;43.238;25.306;2023-02-26T08:16:14;10.20;;;4.40;;
67715;SDS011;54508;43.238;25.306;2023-02-26T08:18:39;13.95;;;4.68;;
67715;SDS011;54508;43.238;25.306;2023-02-26T08:21:05;10.97;;;4.33;;
67715;SDS011;54508;43.238;25.306;2023-02-26T08:23:30;12.50;;;5.03;;
67715;SDS011;54508;43.238;25.306;2023-02-26T08:28:51;16.65;;;4.65;;
67715;SDS011;54508;43.238;25.306;2023-02-26T08:31:16;13.03;;;4.93;;
67715;SDS011;54508;43.238;25.306;2023-02-26T08:33:43;11.70;;;5.00;;
67715;SDS011;54508;43.238;25.306;2023-02-26T08:36:10;9.60;;;4.80;;
67715;SDS011;54508;43.238;25.306;2023-02-26T08:38:35;11.82;;;3.83;;
67715;SDS011;54508;43.238;25.306;2023-02-26T08:41:03;9.13;;;4.68;;
67715;SDS011;54508;43.238;25.306;2023-02-26T08:43:29;10.40;;;4.23;;
67715;SDS011;54508;43.238;25.306;2023-02-26T08:45:55;9.50;;;4.57;;
67715;SDS011;54508;43.238;25.306;2023-02-26T08:48:22;8.82;;;4.35;;
67715;SDS011;54508;43.238;25.306;2023-02-26T08:50:48;10.98;;;5.15;;
67715;SDS011;54508;43.238;25.306;2023-02-26T08:53:13;16.87;;;4.73;;
67715;SDS011;54508;43.238;25.306;2023-02-26T08:55:39;9.53;;;4.50;;
67715;SDS011;54508;43.238;25.306;2023-02-26T08:58:04;9.07;;;4.43;;
67715;SDS011;54508;43.238;25.306;2023-02-26T09:00:31;10.02;;;4.60;;
67715;SDS011;54508;43.238;25.306;2023-02-26T09:02:57;13.65;;;4.40;;
67715;SDS011;54508;43.238;25.306;2023-02-26T09:05:23;10.48;;;4.53;;
67715;SDS011;54508;43.238;25.306;2023-02-26T09:07:48;12.20;;;4.43;;
67715;SDS011;54508;43.238;25.306;2023-02-26T09:10:14;15.13;;;4.40;;
67715;SDS011;54508;43.238;25.306;2023-02-26T09:12:40;11.25;;;4.18;;
67715;SDS011;54508;43.238;25.306;2023-02-26T09:15:07;8.68;;;4.32;;
67715;SDS011;54508;43.238;25.306;2023-02-26T09:17:33;6.63;;;4.33;;
67715;SDS011;54508;43.238;25.306;2023-02-26T09:19:58;9.57;;;4.43;;
67715;SDS011;54508;43.238;25.306;2023-02-26T09:22:27;17.13;;;4.85;;
67715;SDS011;54508;43.238;25.306;2023-02-26T09:24:56;12.50;;;4.55;;
67715;SDS011;54508;43.238;25.306;2023-02-26T09:27:21;14.43;;;4.50;;
67715;SDS011;54508;43.238;25.306;2023-02-26T09:29:47;15.73;;;4.27;;
67715;SDS011;54508;43.238;25.306;2023-02-26T09:32:12;14.48;;;4.28;;
67715;SDS011;54508;43.238;25.306;2023-02-26T09:34:38;10.03;;;4.40;;
67715;SDS011;54508;43.238;25.306;2023-02-26T09:37:15;14.20;;;4.47;;
67715;SDS011;54508;43.238;25.306;2023-02-26T09:39:47;11.20;;;4.22;;
67715;SDS011;54508;43.238;25.306;2023-02-26T09:45:06;11.60;;;4.50;;
67715;SDS011;54508;43.238;25.306;2023-02-26T09:47:42;13.35;;;5.20;;
67715;SDS011;54508;43.238;25.306;2023-02-26T09:51:18;14.87;;;4.70;;
67715;SDS011;54508;43.238;25.306;2023-02-26T09:53:36;18.58;;;3.75;;
67715;SDS011;54508;43.238;25.306;2023-02-26T09:59:08;13.60;;;4.07;;
67715;SDS011;54508;43.238;25.306;2023-02-26T10:01:37;16.08;;;3.80;;
67715;SDS011;54508;43.238;25.306;2023-02-26T10:07:22;10.18;;;4.00;;
67715;SDS011;54508;43.238;25.306;2023-02-26T10:12:47;14.98;;;3.92;;
67715;SDS011;54508;43.238;25.306;2023-02-26T10:15:47;7.97;;;4.18;;
67715;SDS011;54508;43.238;25.306;2023-02-26T10:18:17;12.87;;;3.93;;
67715;SDS011;54508;43.238;25.306;2023-02-26T10:26:44;11.35;;;4.30;;
67715;SDS011;54508;43.238;25.306;2023-02-26T10:34:53;18.75;;;4.70;;
67715;SDS011;54508;43.238;25.306;2023-02-26T10:37:40;19.67;;;4.93;;
67715;SDS011;54508;43.238;25.306;2023-02-26T10:43:21;16.75;;;4.68;;
67715;SDS011;54508;43.238;25.306;2023-02-26T10:45:56;14.60;;;4.40;;
67715;SDS011;54508;43.238;25.306;2023-02-26T10:51:18;6.55;;;3.88;;
67715;SDS011;54508;43.238;25.306;2023-02-26T10:53:56;12.60;;;4.38;;
67715;SDS011;54508;43.238;25.306;2023-02-26T10:56:32;11.93;;;4.07;;
67715;SDS011;54508;43.238;25.306;2023-02-26T10:58:57;8.03;;;4.27;;
67715;SDS011;54508;43.238;25.306;2023-02-26T11:01:24;17.95;;;4.85;;
67715;SDS011;54508;43.238;25.306;2023-02-26T11:03:55;12.85;;;5.22;;
67715;SDS011;54508;43.238;25.306;2023-02-26T11:06:46;15.48;;;6.10;;
67715;SDS011;54508;43.238;25.306;2023-02-26T11:09:17;17.73;;;6.53;;
67715;SDS011;54508;43.238;25.306;2023-02-26T11:14:11;12.00;;;5.57;;
67715;SDS011;54508;43.238;25.306;2023-02-26T11:16:57;17.33;;;6.07;;
67715;SDS011;54508;43.238;25.306;2023-02-26T11:19:27;19.52;;;5.78;;
67715;SDS011;54508;43.238;25.306;2023-02-26T11:21:55;16.27;;;5.90;;
67715;SDS011;54508;43.238;25.306;2023-02-26T11:24:28;13.48;;;5.70;;
67715;SDS011;54508;43.238;25.306;2023-02-26T11:26:55;18.77;;;6.00;;
67715;SDS011;54508;43.238;25.306;2023-02-26T11:29:22;17.98;;;5.88;;
67715;SDS011;54508;43.238;25.306;2023-02-26T11:31:53;13.70;;;5.10;;
67715;SDS011;54508;43.238;25.306;2023-02-26T11:34:23;11.30;;;5.40;;
67715;SDS011;54508;43.238;25.306;2023-02-26T11:36:49;13.68;;;5.07;;
67715;SDS011;54508;43.238;25.306;2023-02-26T11:39:21;15.88;;;5.63;;
67715;SDS011;54508;43.238;25.306;2023-02-26T11:41:50;13.52;;;5.28;;
67715;SDS011;54508;43.238;25.306;2023-02-26T11:47:01;12.30;;;4.72;;
67715;SDS011;54508;43.238;25.306;2023-02-26T11:50:01;14.15;;;5.00;;
67715;SDS011;54508;43.238;25.306;2023-02-26T11:52:42;17.65;;;5.20;;
67715;SDS011;54508;43.238;25.306;2023-02-26T11:55:20;12.48;;;4.38;;
67715;SDS011;54508;43.238;25.306;2023-02-26T11:57:56;16.98;;;5.03;;
67715;SDS011;54508;43.238;25.306;2023-02-26T12:00:30;10.98;;;4.82;;
67715;SDS011;54508;43.238;25.306;2023-02-26T12:03:03;12.90;;;4.97;;
67715;SDS011;54508;43.238;25.306;2023-02-26T12:05:36;16.80;;;4.38;;
67715;SDS011;54508;43.238;25.306;2023-02-26T12:08:02;9.48;;;4.40;;
67715;SDS011;54508;43.238;25.306;2023-02-26T12:10:40;17.10;;;4.43;;
67715;SDS011;54508;43.238;25.306;2023-02-26T12:13:13;14.80;;;4.28;;
67715;SDS011;54508;43.238;25.306;2023-02-26T12:15:51;10.68;;;4.45;;
67715;SDS011;54508;43.238;25.306;2023-02-26T12:19:00;13.20;;;4.20;;
67715;SDS011;54508;43.238;25.306;2023-02-26T12:38:29;7.03;;;3.83;;
67715;SDS011;54508;43.238;25.306;2023-02-26T12:41:14;7.88;;;3.78;;
67715;SDS011;54508;43.238;25.306;2023-02-26T12:46:27;8.07;;;4.00;;
67715;SDS011;54508;43.238;25.306;2023-02-26T12:54:55;8.90;;;3.45;;
67715;SDS011;54508;43.238;25.306;2023-02-26T13:06:04;9.47;;;3.60;;
67715;SDS011;54508;43.238;25.306;2023-02-26T13:08:40;9.43;;;3.58;;
67715;SDS011;54508;43.238;25.306;2023-02-26T13:16:49;12.63;;;3.90;;
67715;SDS011;54508;43.238;25.306;2023-02-26T13:19:35;8.27;;;3.23;;
67715;SDS011;54508;43.238;25.306;2023-02-26T13:22:36;9.93;;;3.28;;
67715;SDS011;54508;43.238;25.306;2023-02-26T13:27:40;7.38;;;3.78;;
67715;SDS011;54508;43.238;25.306;2023-02-26T13:32:55;9.23;;;3.57;;
67715;SDS011;54508;43.238;25.306;2023-02-26T13:37:56;13.13;;;3.58;;
67715;SDS011;54508;43.238;25.306;2023-02-26T13:40:30;10.68;;;3.60;;
67715;SDS011;54508;43.238;25.306;2023-02-26T13:51:52;7.00;;;3.60;;
67715;SDS011;54508;43.238;25.306;2023-02-26T13:57:24;6.63;;;3.33;;
67715;SDS011;54508;43.238;25.306;2023-02-26T14:00:56;11.67;;;3.87;;
67715;SDS011;54508;43.238;25.306;2023-02-26T14:03:11;10.50;;;3.13;;
67715;SDS011;54508;43.238;25.306;2023-02-26T14:06:40;6.75;;;2.88;;
67715;SDS011;54508;43.238;25.306;2023-02-26T14:09:01;10.15;;;3.00;;
67715;SDS011;54508;43.238;25.306;2023-02-26T14:11:41;11.60;;;3.20;;
67715;SDS011;54508;43.238;25.306;2023-02-26T14:14:23;8.27;;;3.00;;
67715;SDS011;54508;43.238;25.306;2023-02-26T14:19:43;6.82;;;3.17;;
67715;SDS011;54508;43.238;25.306;2023-02-26T14:22:33;7.47;;;3.20;;
67715;SDS011;54508;43.238;25.306;2023-02-26T14:30:50;9.35;;;3.08;;
67715;SDS011;54508;43.238;25.306;2023-02-26T14:36:40;6.20;;;3.17;;
67715;SDS011;54508;43.238;25.306;2023-02-26T14:39:17;5.93;;;3.00;;
67715;SDS011;54508;43.238;25.306;2023-02-26T14:41:49;9.87;;;3.10;;
67715;SDS011;54508;43.238;25.306;2023-02-26T14:44:21;4.88;;;2.80;;
67715;SDS011;54508;43.238;25.306;2023-02-26T14:46:50;5.55;;;2.88;;
67715;SDS011;54508;43.238;25.306;2023-02-26T14:52:35;6.32;;;3.20;;
67715;SDS011;54508;43.238;25.306;2023-02-26T15:00:56;7.32;;;3.35;;
67715;SDS011;54508;43.238;25.306;2023-02-26T15:06:35;10.40;;;3.15;;
67715;SDS011;54508;43.238;25.306;2023-02-26T15:09:25;10.00;;;3.07;;
67715;SDS011;54508;43.238;25.306;2023-02-26T15:20:30;5.95;;;3.20;;
67715;SDS011;54508;43.238;25.306;2023-02-26T15:28:57;6.63;;;2.72;;
67715;SDS011;54508;43.238;25.306;2023-02-26T15:31:32;6.90;;;3.35;;
67715;SDS011;54508;43.238;25.306;2023-02-26T15:34:00;7.80;;;3.30;;
67715;SDS011;54508;43.238;25.306;2023-02-26T15:36:31;7.33;;;3.17;;
67715;SDS011;54508;43.238;25.306;2023-02-26T15:39:16;8.60;;;3.08;;
67715;SDS011;54508;43.238;25.306;2023-02-26T15:41:42;5.95;;;3.28;;
67715;SDS011;54508;43.238;25.306;2023-02-26T15:44:13;8.68;;;3.50;;
67715;SDS011;54508;43.238;25.306;2023-02-26T15:46:45;6.47;;;3.10;;
67715;SDS011;54508;43.238;25.306;2023-02-26T15:49:19;6.55;;;3.38;;
67715;SDS011;54508;43.238;25.306;2023-02-26T15:51:49;8.70;;;3.33;;
67715;SDS011;54508;43.238;25.306;2023-02-26T15:54:17;5.90;;;3.28;;
67715;SDS011;54508;43.238;25.306;2023-02-26T15:56:44;9.57;;;3.78;;
67715;SDS011;54508;43.238;25.306;2023-02-26T15:59:25;8.38;;;2.95;;
67715;SDS011;54508;43.238;25.306;2023-02-26T16:01:53;7.82;;;3.88;;
67715;SDS011;54508;43.238;25.306;2023-02-26T16:04:20;7.22;;;3.20;;
67715;SDS011;54508;43.238;25.306;2023-02-26T16:06:52;7.43;;;3.53;;
67715;SDS011;54508;43.238;25.306;2023-02-26T16:09:24;8.70;;;3.42;;
67715;SDS011;54508;43.238;25.306;2023-02-26T16:11:52;8.85;;;3.45;;
67715;SDS011;54508;43.238;25.306;2023-02-26T16:14:24;6.20;;;3.03;;
67715;SDS011;54508;43.238;25.306;2023-02-26T16:16:52;7.10;;;3.38;;
67715;SDS011;54508;43.238;25.306;2023-02-26T16:19:20;6.00;;;2.90;;
67715;SDS011;54508;43.238;25.306;2023-02-26T16:21:54;7.00;;;3.17;;
67715;SDS011;54508;43.238;25.306;2023-02-26T16:24:19;7.88;;;3.53;;
67715;SDS011;54508;43.238;25.306;2023-02-26T16:26:54;7.43;;;3.38;;
67715;SDS011;54508;43.238;25.306;2023-02-26T16:29:24;5.90;;;3.13;;
67715;SDS011;54508;43.238;25.306;2023-02-26T16:31:56;11.18;;;3.38;;
67715;SDS011;54508;43.238;25.306;2023-02-26T16:34:29;6.18;;;2.92;;
67715;SDS011;54508;43.238;25.306;2023-02-26T16:37:10;8.63;;;3.35;;
67715;SDS011;54508;43.238;25.306;2023-02-26T16:39:43;7.35;;;3.85;;
67715;SDS011;54508;43.238;25.306;2023-02-26T16:42:19;10.07;;;3.33;;
67715;SDS011;54508;43.238;25.306;2023-02-26T16:44:50;8.68;;;3.78;;
67715;SDS011;54508;43.238;25.306;2023-02-26T16:47:21;6.30;;;3.17;;
67715;SDS011;54508;43.238;25.306;2023-02-26T16:49:48;6.35;;;3.30;;
67715;SDS011;54508;43.238;25.306;2023-02-26T16:52:15;7.30;;;3.37;;
67715;SDS011;54508;43.238;25.306;2023-02-26T16:54:44;8.18;;;3.33;;
67715;SDS011;54508;43.238;25.306;2023-02-26T16:57:17;6.97;;;3.60;;
67715;SDS011;54508;43.238;25.306;2023-02-26T16:59:57;8.73;;;3.50;;
67715;SDS011;54508;43.238;25.306;2023-02-26T17:02:25;11.13;;;3.25;;
67715;SDS011;54508;43.238;25.306;2023-02-26T17:04:56;8.10;;;3.88;;
67715;SDS011;54508;43.238;25.306;2023-02-26T17:07:31;8.75;;;3.28;;
67715;SDS011;54508;43.238;25.306;2023-02-26T17:10:03;10.13;;;3.55;;
67715;SDS011;54508;43.238;25.306;2023-02-26T17:12:44;7.90;;;3.10;;
67715;SDS011;54508;43.238;25.306;2023-02-26T17:15:18;14.48;;;3.47;;
67715;SDS011;54508;43.238;25.306;2023-02-26T17:17:46;8.85;;;3.55;;
67715;SDS011;54508;43.238;25.306;2023-02-26T17:20:12;6.88;;;3.60;;
67715;SDS011;54508;43.238;25.306;2023-02-26T17:22:38;10.48;;;3.88;;
67715;SDS011;54508;43.238;25.306;2023-02-26T17:25:08;9.57;;;3.43;;
67715;SDS011;54508;43.238;25.306;2023-02-26T17:27:38;9.05;;;3.60;;
67715;SDS011;54508;43.238;25.306;2023-02-26T17:30:04;10.93;;;3.93;;
67715;SDS011;54508;43.238;25.306;2023-02-26T17:32:30;14.15;;;4.15;;
67715;SDS011;54508;43.238;25.306;2023-02-26T17:34:56;36.85;;;8.30;;
67715;SDS011;54508;43.238;25.306;2023-02-26T17:37:23;127.03;;;18.88;;
67715;SDS011;54508;43.238;25.306;2023-02-26T17:39:52;128.27;;;23.63;;
67715;SDS011;54508;43.238;25.306;2023-02-26T17:42:18;112.90;;;18.88;;
67715;SDS011;54508;43.238;25.306;2023-02-26T17:44:47;98.07;;;16.93;;
67715;SDS011;54508;43.238;25.306;2023-02-26T17:47:15;110.03;;;18.02;;
67715;SDS011;54508;43.238;25.306;2023-02-26T17:49:42;107.18;;;17.50;;
67715;SDS011;54508;43.238;25.306;2023-02-26T17:52:08;86.75;;;16.00;;
67715;SDS011;54508;43.238;25.306;2023-02-26T17:54:33;94.20;;;17.27;;
67715;SDS011;54508;43.238;25.306;2023-02-26T17:56:59;79.83;;;14.30;;
67715;SDS011;54508;43.238;25.306;2023-02-26T17:59:24;77.53;;;15.18;;
67715;SDS011;54508;43.238;25.306;2023-02-26T18:01:51;72.78;;;14.90;;
67715;SDS011;54508;43.238;25.306;2023-02-26T18:04:17;77.18;;;15.90;;